createdAt,value
2019-05-01T00:01:38.720Z,10.63
2019-05-01T00:04:31.194Z,11.38
2019-05-01T00:07:04.650Z,11.33
2019-05-01T00:09:35.164Z,12.20
2019-05-01T00:12:05.685Z,12.80
2019-05-01T00:14:36.386Z,14.10
2019-05-01T00:17:07.153Z,13.20
2019-05-01T00:19:38.770Z,13.27
2019-05-01T00:22:09.332Z,13.63
2019-05-01T00:24:39.859Z,16.30
2019-05-01T00:27:10.444Z,15.20
2019-05-01T00:29:41.086Z,15.78
2019-05-01T00:32:11.668Z,16.00
2019-05-01T00:34:42.283Z,16.53
2019-05-01T00:37:12.869Z,17.83
2019-05-01T00:39:43.427Z,16.10
2019-05-01T00:42:13.982Z,16.50
2019-05-01T00:44:44.512Z,16.90
2019-05-01T00:47:15.248Z,15.87
2019-05-01T00:49:45.847Z,16.63
2019-05-01T00:52:16.409Z,16.87
2019-05-01T00:54:48.826Z,17.07
2019-05-01T00:57:36.075Z,18.47
2019-05-01T01:00:42.125Z,16.80
2019-05-01T01:03:03.742Z,16.57
2019-05-01T01:05:34.296Z,17.80
2019-05-01T01:08:04.963Z,17.40
2019-05-01T01:10:35.593Z,17.07
2019-05-01T01:13:06.163Z,17.77
2019-05-01T01:15:36.732Z,17.57
2019-05-01T01:18:07.295Z,19.32
2019-05-01T01:20:37.819Z,19.00
2019-05-01T01:23:08.378Z,19.83
2019-05-01T01:25:39.037Z,19.00
2019-05-01T01:28:11.082Z,20.27
2019-05-01T01:30:41.737Z,19.80
2019-05-01T01:33:14.121Z,22.75
2019-05-01T01:35:44.680Z,23.00
2019-05-01T01:38:15.243Z,24.20
2019-05-01T01:40:46.093Z,26.37
2019-05-01T01:43:54.294Z,26.17
2019-05-01T01:46:27.343Z,25.13
2019-05-01T01:48:58.993Z,26.30
2019-05-01T01:51:30.645Z,26.80
2019-05-01T01:54:02.370Z,27.60
2019-05-01T01:56:32.981Z,26.67
2019-05-01T01:59:03.954Z,28.60
2019-05-01T02:01:56.231Z,30.30
2019-05-01T02:04:54.898Z,28.40
2019-05-01T02:07:25.631Z,31.13
2019-05-01T02:09:56.187Z,29.97
2019-05-01T02:12:26.924Z,31.57
2019-05-01T02:14:57.658Z,32.00
2019-05-01T02:17:28.218Z,32.43
2019-05-01T02:19:58.763Z,33.63
2019-05-01T02:22:29.372Z,31.47
2019-05-01T02:25:00.023Z,33.03
2019-05-01T02:27:38.331Z,34.80
2019-05-01T02:30:11.328Z,36.90
2019-05-01T02:32:42.413Z,38.13
2019-05-01T02:35:13.495Z,39.20
2019-05-01T02:37:47.441Z,36.58
2019-05-01T02:41:01.556Z,42.40
2019-05-01T02:43:36.424Z,40.57
2019-05-01T02:46:09.560Z,39.57
2019-05-01T02:48:45.391Z,41.67
2019-05-01T02:51:16.658Z,41.23
2019-05-01T02:53:49.141Z,42.55
2019-05-01T02:56:33.233Z,44.75
2019-05-01T02:59:07.480Z,43.95
2019-05-01T03:01:46.941Z,43.67
2019-05-01T03:04:12.392Z,45.38
2019-05-01T03:06:43.285Z,45.13
2019-05-01T03:09:15.914Z,44.30
2019-05-01T03:11:51.264Z,45.63
2019-05-01T03:14:26.288Z,47.10
2019-05-01T03:17:03.390Z,45.37
2019-05-01T03:20:10.066Z,46.00
2019-05-01T03:22:58.484Z,43.93
2019-05-01T03:25:29.359Z,45.17
2019-05-01T03:28:00.185Z,44.75
2019-05-01T03:30:32.088Z,44.42
2019-05-01T03:33:04.453Z,45.12
2019-05-01T03:35:35.649Z,47.50
2019-05-01T03:38:06.171Z,46.07
2019-05-01T03:40:36.972Z,45.73
2019-05-01T03:43:07.886Z,44.77
2019-05-01T03:45:39.128Z,45.98
2019-05-01T03:48:10.149Z,46.50
2019-05-01T03:50:41.305Z,43.98
2019-05-01T03:53:12.318Z,44.70
2019-05-01T03:55:42.888Z,43.38
2019-05-01T03:58:13.842Z,43.87
2019-05-01T04:00:55.583Z,42.70
2019-05-01T04:03:33.006Z,43.60
2019-05-01T04:06:04.372Z,42.80
2019-05-01T04:08:35.119Z,43.13
2019-05-01T04:11:06.956Z,43.92
2019-05-01T04:13:37.892Z,44.33
2019-05-01T04:16:10.149Z,43.08
2019-05-01T04:18:41.335Z,41.77
2019-05-01T04:21:12.227Z,42.93
2019-05-01T04:23:43.857Z,42.78
2019-05-01T04:26:14.964Z,41.17
2019-05-01T04:29:16.855Z,41.28
2019-05-01T04:31:52.945Z,42.10
2019-05-01T04:34:38.997Z,41.43
2019-05-01T04:37:12.456Z,42.83
2019-05-01T04:39:44.205Z,44.83
2019-05-01T04:42:14.966Z,42.40
2019-05-01T04:44:45.901Z,43.98
2019-05-01T04:47:17.455Z,43.23
2019-05-01T04:49:48.176Z,43.33
2019-05-01T04:52:19.226Z,42.47
2019-05-01T04:54:49.959Z,41.40
2019-05-01T04:57:20.642Z,43.17
2019-05-01T04:59:52.378Z,42.23
2019-05-01T05:02:35.367Z,43.05
2019-05-01T05:05:07.265Z,41.60
2019-05-01T05:07:38.500Z,42.25
2019-05-01T05:10:09.221Z,42.30
2019-05-01T05:13:05.135Z,39.88
2019-05-01T05:16:07.451Z,38.78
2019-05-01T05:18:39.012Z,38.58
2019-05-01T05:21:10.254Z,40.25
2019-05-01T05:23:40.963Z,40.03
2019-05-01T05:26:12.508Z,39.60
2019-05-01T05:28:45.407Z,39.73
2019-05-01T05:31:17.270Z,37.90
2019-05-01T05:33:50.479Z,38.40
2019-05-01T05:36:24.800Z,37.93
2019-05-01T05:39:01.401Z,36.65
2019-05-01T05:41:35.470Z,38.30
2019-05-01T05:44:06.099Z,37.60
2019-05-01T05:46:36.982Z,38.13
2019-05-01T05:49:07.808Z,36.42
2019-05-01T05:52:00.656Z,37.55
2019-05-01T05:54:47.700Z,36.88
2019-05-01T05:57:26.127Z,37.42
2019-05-01T06:00:08.048Z,39.23
2019-05-01T06:03:02.354Z,36.98
2019-05-01T06:05:55.025Z,36.55
2019-05-01T06:08:30.509Z,37.13
2019-05-01T06:11:22.032Z,36.25
2019-05-01T06:14:13.568Z,34.88
2019-05-01T06:16:56.971Z,35.05
2019-05-01T06:19:50.971Z,34.33
2019-05-01T06:22:47.642Z,33.88
2019-05-01T06:25:25.222Z,33.30
2019-05-01T06:27:56.325Z,35.03
2019-05-01T06:30:27.112Z,33.73
2019-05-01T06:32:57.896Z,31.85
2019-05-01T06:35:28.543Z,30.82
2019-05-01T06:38:14.241Z,27.67
2019-05-01T06:40:46.657Z,25.08
2019-05-01T06:43:57.124Z,25.23
2019-05-01T06:47:03.348Z,24.92
2019-05-01T06:49:45.235Z,23.83
2019-05-01T06:52:20.408Z,21.95
2019-05-01T06:54:53.603Z,22.57
2019-05-01T06:57:26.537Z,22.98
2019-05-01T07:00:03.278Z,22.37
2019-05-01T07:02:35.161Z,22.07
2019-05-01T07:05:09.075Z,21.82
2019-05-01T07:07:39.469Z,21.20
2019-05-01T07:10:10.450Z,21.20
2019-05-01T07:12:44.431Z,21.20
2019-05-01T07:15:15.613Z,20.43
2019-05-01T07:17:47.749Z,21.30
2019-05-01T07:20:47.409Z,21.23
2019-05-01T07:23:19.682Z,20.72
2019-05-01T07:25:52.062Z,20.62
2019-05-01T07:28:28.864Z,19.57
2019-05-01T07:31:08.767Z,20.05
2019-05-01T07:33:39.824Z,20.17
2019-05-01T07:36:15.554Z,20.65
2019-05-01T07:38:45.917Z,19.25
2019-05-01T07:41:16.538Z,19.40
2019-05-01T07:44:07.402Z,20.82
2019-05-01T07:46:58.549Z,19.80
2019-05-01T07:50:01.293Z,19.65
2019-05-01T07:52:32.140Z,19.15
2019-05-01T07:55:02.918Z,18.73
2019-05-01T07:57:34.379Z,18.98
2019-05-01T08:00:12.420Z,20.42
2019-05-01T08:02:43.187Z,17.55
2019-05-01T08:05:13.876Z,19.95
2019-05-01T08:07:44.496Z,20.08
2019-05-01T08:10:20.971Z,19.10
2019-05-01T08:12:49.059Z,19.52
2019-05-01T08:15:22.468Z,19.07
2019-05-01T08:17:54.296Z,18.45
2019-05-01T08:20:39.919Z,17.70
2019-05-01T08:23:12.147Z,18.05
2019-05-01T08:25:43.025Z,18.15
2019-05-01T08:28:31.991Z,17.80
2019-05-01T08:31:15.062Z,17.02
2019-05-01T08:34:06.675Z,17.57
2019-05-01T08:36:37.250Z,18.10
2019-05-01T08:39:10.319Z,17.80
2019-05-01T08:41:41.205Z,17.07
2019-05-01T08:44:11.796Z,17.25
2019-05-01T08:46:57.452Z,15.88
2019-05-01T08:49:49.478Z,16.15
2019-05-01T08:52:17.273Z,15.30
2019-05-01T08:54:48.227Z,15.78
2019-05-01T08:57:20.719Z,15.83
2019-05-01T08:59:51.357Z,15.35
2019-05-01T09:02:21.950Z,16.75
2019-05-01T09:05:02.224Z,16.75
2019-05-01T09:07:24.886Z,17.30
2019-05-01T09:09:57.011Z,17.05
2019-05-01T09:12:27.858Z,16.45
2019-05-01T09:14:58.600Z,15.45
2019-05-01T09:17:29.185Z,15.45
2019-05-01T09:19:59.765Z,13.03
2019-05-01T09:22:30.612Z,13.00
2019-05-01T09:25:02.645Z,13.90
2019-05-01T09:27:52.104Z,14.38
2019-05-01T09:30:41.728Z,12.77
2019-05-01T09:33:13.474Z,14.43
2019-05-01T09:35:45.269Z,13.13
2019-05-01T09:38:16.479Z,14.07
2019-05-01T09:40:47.306Z,15.32
2019-05-01T09:43:18.099Z,14.85
2019-05-01T09:45:49.208Z,14.87
2019-05-01T09:48:19.887Z,14.68
2019-05-01T09:51:09.470Z,15.75
2019-05-01T09:54:05.703Z,12.33
2019-05-01T09:56:38.472Z,12.63
2019-05-01T09:59:12.700Z,14.60
2019-05-01T10:01:41.547Z,12.28
2019-05-01T10:04:12.277Z,13.95
2019-05-01T10:06:43.481Z,14.00
2019-05-01T10:09:16.884Z,14.30
2019-05-01T10:11:48.331Z,14.70
2019-05-01T10:14:19.229Z,13.62
2019-05-01T10:16:50.000Z,16.85
2019-05-01T10:19:20.590Z,16.55
2019-05-01T10:21:51.136Z,15.05
2019-05-01T10:24:21.736Z,16.50
2019-05-01T10:26:55.229Z,16.00
2019-05-01T10:29:48.014Z,15.30
2019-05-01T10:32:31.679Z,15.08
2019-05-01T10:35:14.210Z,16.82
2019-05-01T10:37:45.776Z,15.90
2019-05-01T10:40:16.700Z,15.20
2019-05-01T10:42:47.376Z,15.83
2019-05-01T10:45:18.000Z,15.90
2019-05-01T10:47:48.578Z,15.18
2019-05-01T10:50:19.288Z,14.70
2019-05-01T10:52:50.094Z,13.18
2019-05-01T10:55:22.147Z,11.15
2019-05-01T10:57:54.434Z,10.72
2019-05-01T11:00:27.226Z,10.05
2019-05-01T11:02:57.787Z,8.43
2019-05-01T11:05:28.819Z,10.53
2019-05-01T11:07:59.581Z,11.00
2019-05-01T11:10:30.179Z,12.58
2019-05-01T11:13:00.806Z,11.75
2019-05-01T11:15:31.391Z,13.62
2019-05-01T11:18:02.063Z,14.73
2019-05-01T11:20:32.822Z,16.20
2019-05-01T11:23:03.378Z,15.50
2019-05-01T11:25:36.625Z,16.10
2019-05-01T11:28:07.333Z,17.02
2019-05-01T11:30:38.559Z,17.62
2019-05-01T11:33:24.206Z,18.20
2019-05-01T11:36:13.470Z,16.82
2019-05-01T11:38:58.303Z,16.10
2019-05-01T11:41:33.643Z,16.60
2019-05-01T11:44:04.351Z,17.82
2019-05-01T11:46:36.117Z,16.75
2019-05-01T11:49:06.869Z,16.07
2019-05-01T11:51:37.488Z,16.20
2019-05-01T11:54:08.184Z,17.17
2019-05-01T11:56:38.890Z,16.10
2019-05-01T11:59:09.674Z,16.07
2019-05-01T12:01:40.421Z,15.85
2019-05-01T12:04:10.976Z,17.48
2019-05-01T12:06:41.974Z,14.38
2019-05-01T12:09:12.598Z,15.58
2019-05-01T12:11:44.830Z,15.45
2019-05-01T12:14:15.424Z,15.72
2019-05-01T12:17:20.112Z,14.33
2019-05-01T12:19:50.750Z,14.90
2019-05-01T12:22:21.403Z,14.78
2019-05-01T12:24:53.099Z,13.35
2019-05-01T12:27:24.140Z,13.48
2019-05-01T12:29:56.206Z,12.40
2019-05-01T12:32:26.750Z,13.00
2019-05-01T12:34:59.157Z,12.20
2019-05-01T12:37:34.648Z,12.70
2019-05-01T12:40:06.863Z,12.30
2019-05-01T12:42:38.540Z,12.63
2019-05-01T12:45:11.690Z,12.60
2019-05-01T12:47:59.187Z,11.18
2019-05-01T12:50:29.813Z,11.90
2019-05-01T12:53:18.300Z,12.78
2019-05-01T12:56:17.166Z,10.70
2019-05-01T12:58:49.755Z,9.65
2019-05-01T13:01:20.295Z,10.08
2019-05-01T13:03:50.921Z,9.20
2019-05-01T13:06:21.539Z,9.28
2019-05-01T13:08:52.091Z,8.90
2019-05-01T13:11:22.619Z,8.68
2019-05-01T13:13:53.293Z,9.23
2019-05-01T13:16:23.821Z,8.63
2019-05-01T13:18:54.617Z,8.25
2019-05-01T13:21:25.218Z,9.30
2019-05-01T13:23:55.899Z,9.75
2019-05-01T13:26:40.593Z,8.75
2019-05-01T13:29:17.546Z,8.78
2019-05-01T13:31:52.297Z,8.68
2019-05-01T13:34:23.028Z,7.95
2019-05-01T13:37:02.729Z,7.70
2019-05-01T13:39:25.843Z,7.08
2019-05-01T13:41:56.449Z,7.47
2019-05-01T13:44:27.003Z,6.85
2019-05-01T13:46:57.589Z,7.50
2019-05-01T13:49:28.141Z,7.28
2019-05-01T13:51:58.700Z,6.92
2019-05-01T13:54:29.261Z,6.37
2019-05-01T13:56:59.816Z,6.35
2019-05-01T13:59:30.485Z,7.33
2019-05-01T14:02:03.532Z,7.70
2019-05-01T14:04:34.301Z,7.15
2019-05-01T14:07:15.730Z,7.17
2019-05-01T14:09:38.363Z,7.17
2019-05-01T14:12:09.013Z,6.58
2019-05-01T14:14:39.616Z,6.70
2019-05-01T14:17:11.637Z,6.53
2019-05-01T14:19:44.856Z,7.22
2019-05-01T14:22:27.703Z,7.53
2019-05-01T14:25:00.724Z,7.62
2019-05-01T14:27:31.277Z,7.58
2019-05-01T14:30:01.898Z,8.75
2019-05-01T14:32:32.424Z,7.50
2019-05-01T14:35:03.030Z,7.10
2019-05-01T14:37:35.265Z,7.70
2019-05-01T14:40:07.042Z,6.85
2019-05-01T14:42:37.662Z,6.92
2019-05-01T14:45:10.618Z,6.78
2019-05-01T14:47:41.210Z,7.47
2019-05-01T14:50:12.043Z,6.80
2019-05-01T14:52:42.649Z,7.17
2019-05-01T14:55:13.450Z,8.35
2019-05-01T14:57:44.228Z,7.53
2019-05-01T15:00:15.404Z,7.77
2019-05-01T15:02:45.940Z,7.50
2019-05-01T15:05:16.957Z,6.83
2019-05-01T15:07:47.679Z,6.25
2019-05-01T15:10:18.467Z,6.92
2019-05-01T15:12:50.915Z,6.62
2019-05-01T15:15:40.403Z,6.30
2019-05-01T15:18:20.469Z,6.70
2019-05-01T15:20:52.113Z,5.80
2019-05-01T15:23:22.694Z,5.92
2019-05-01T15:25:53.330Z,5.78
2019-05-01T15:28:23.913Z,10.08
2019-05-01T15:30:54.671Z,7.53
2019-05-01T15:33:26.711Z,7.17
2019-05-01T15:35:57.470Z,6.55
2019-05-01T15:38:28.010Z,6.47
2019-05-01T15:41:08.182Z,7.10
2019-05-01T15:43:44.537Z,6.95
2019-05-01T15:46:15.216Z,7.15
2019-05-01T15:48:45.867Z,7.05
2019-05-01T15:51:17.514Z,7.25
2019-05-01T15:53:48.197Z,7.53
2019-05-01T15:56:18.769Z,7.00
2019-05-01T15:58:49.343Z,7.47
2019-05-01T16:01:19.891Z,7.28
2019-05-01T16:03:50.503Z,7.05
2019-05-01T16:06:21.077Z,6.87
2019-05-01T16:08:51.650Z,6.72
2019-05-01T16:11:44.128Z,6.28
2019-05-01T16:14:14.781Z,6.05
2019-05-01T16:16:45.347Z,6.05
2019-05-01T16:19:15.953Z,6.60
2019-05-01T16:21:46.576Z,6.53
2019-05-01T16:24:18.641Z,5.92
2019-05-01T16:27:08.285Z,5.90
2019-05-01T16:29:38.875Z,6.60
2019-05-01T16:32:09.419Z,6.15
2019-05-01T16:34:41.188Z,6.33
2019-05-01T16:37:12.873Z,6.03
2019-05-01T16:40:03.683Z,5.67
2019-05-01T16:42:41.938Z,6.30
2019-05-01T16:45:13.090Z,5.70
2019-05-01T16:47:43.742Z,6.30
2019-05-01T16:50:16.181Z,6.33
2019-05-01T16:52:46.723Z,6.37
2019-05-01T16:55:17.400Z,5.95
2019-05-01T16:57:48.000Z,6.60
2019-05-01T17:00:24.323Z,5.87
2019-05-01T17:03:13.768Z,6.45
2019-05-01T17:06:01.952Z,6.15
2019-05-01T17:08:53.076Z,5.55
2019-05-01T17:11:29.062Z,5.75
2019-05-01T17:14:00.097Z,6.58
2019-05-01T17:16:30.835Z,6.30
2019-05-01T17:19:01.424Z,6.78
2019-05-01T17:21:32.212Z,6.90
2019-05-01T17:24:02.780Z,6.35
2019-05-01T17:26:33.368Z,7.00
2019-05-01T17:29:04.011Z,6.78
2019-05-01T17:31:35.665Z,6.30
2019-05-01T17:34:06.321Z,5.22
2019-05-01T17:36:38.390Z,5.60
2019-05-01T17:39:09.334Z,6.03
2019-05-01T17:41:41.004Z,5.62
2019-05-01T17:44:11.559Z,5.78
2019-05-01T17:46:46.967Z,6.12
2019-05-01T17:49:14.550Z,5.40
2019-05-01T17:51:47.552Z,5.78
2019-05-01T17:54:18.098Z,5.75
2019-05-01T17:56:53.715Z,5.65
2019-05-01T17:59:22.263Z,5.28
2019-05-01T18:02:11.740Z,5.40
2019-05-01T18:04:51.450Z,4.92
2019-05-01T18:07:22.101Z,5.00
2019-05-01T18:09:55.654Z,5.10
2019-05-01T18:12:28.399Z,5.62
2019-05-01T18:14:58.364Z,5.35
2019-05-01T18:17:28.969Z,5.45
2019-05-01T18:19:59.542Z,6.05
2019-05-01T18:23:03.597Z,5.80
2019-05-01T18:25:44.179Z,5.55
2019-05-01T18:28:42.578Z,5.40
2019-05-01T18:31:18.548Z,5.67
2019-05-01T18:33:49.114Z,5.60
2019-05-01T18:36:24.574Z,5.75
2019-05-01T18:39:16.819Z,6.05
2019-05-01T18:41:50.546Z,6.58
2019-05-01T18:44:21.204Z,6.15
2019-05-01T18:46:51.997Z,6.22
2019-05-01T18:49:23.845Z,6.50
2019-05-01T18:51:54.452Z,6.60
2019-05-01T18:54:25.109Z,5.80
2019-05-01T18:56:55.817Z,6.05
2019-05-01T18:59:26.389Z,6.35
2019-05-01T19:01:57.257Z,6.53
2019-05-01T19:04:28.967Z,6.65
2019-05-01T19:06:59.714Z,6.47
2019-05-01T19:09:30.889Z,6.87
2019-05-01T19:12:01.510Z,6.67
2019-05-01T19:14:32.449Z,6.75
2019-05-01T19:17:03.098Z,6.75
2019-05-01T19:19:35.579Z,6.90
2019-05-01T19:22:07.343Z,6.90
2019-05-01T19:24:40.088Z,7.03
2019-05-01T19:27:14.167Z,7.25
2019-05-01T19:29:42.868Z,6.72
2019-05-01T19:32:14.413Z,7.15
2019-05-01T19:34:45.015Z,6.85
2019-05-01T19:37:16.525Z,6.67
2019-05-01T19:39:48.986Z,7.53
2019-05-01T19:42:23.521Z,7.17
2019-05-01T19:44:56.267Z,7.75
2019-05-01T19:47:26.723Z,7.92
2019-05-01T19:50:06.824Z,8.18
2019-05-01T19:52:32.441Z,7.87
2019-05-01T19:55:06.437Z,7.75
2019-05-01T19:57:34.496Z,7.60
2019-05-01T20:00:07.160Z,8.00
2019-05-01T20:02:39.500Z,8.15
2019-05-01T20:05:11.190Z,8.45
2019-05-01T20:07:42.112Z,8.40
2019-05-01T20:10:14.376Z,7.83
2019-05-01T20:12:44.939Z,7.97
2019-05-01T20:15:20.077Z,8.10
2019-05-01T20:17:49.393Z,8.15
2019-05-01T20:20:20.075Z,7.05
2019-05-01T20:22:53.341Z,8.15
2019-05-01T20:25:23.052Z,8.20
2019-05-01T20:27:57.270Z,8.38
2019-05-01T20:30:27.446Z,8.15
2019-05-01T20:33:01.773Z,7.58
2019-05-01T20:35:30.335Z,7.90
2019-05-01T20:38:00.871Z,8.10
2019-05-01T20:40:32.529Z,8.38
2019-05-01T20:43:05.904Z,8.60
2019-05-01T20:45:36.050Z,8.55
2019-05-01T20:48:06.597Z,8.65
2019-05-01T20:50:37.246Z,9.95
2019-05-01T20:53:07.775Z,10.30
2019-05-01T20:55:38.875Z,9.53
2019-05-01T20:58:16.415Z,10.48
2019-05-01T21:00:53.644Z,10.80
2019-05-01T21:03:21.079Z,10.32
2019-05-01T21:06:02.984Z,10.78
2019-05-01T21:08:41.984Z,11.45
2019-05-01T21:11:16.779Z,12.20
2019-05-01T21:13:48.452Z,12.33
2019-05-01T21:16:19.020Z,10.60
2019-05-01T21:18:49.576Z,11.05
2019-05-01T21:21:20.172Z,10.82
2019-05-01T21:23:53.413Z,10.78
2019-05-01T21:26:23.461Z,11.60
2019-05-01T21:28:54.185Z,10.20
2019-05-01T21:31:24.739Z,11.55
2019-05-01T21:33:55.308Z,10.80
2019-05-01T21:36:26.048Z,12.00
2019-05-01T21:38:56.744Z,12.55
2019-05-01T21:41:27.300Z,11.35
2019-05-01T21:43:57.877Z,11.95
2019-05-01T21:46:28.446Z,11.78
2019-05-01T21:48:59.115Z,12.30
2019-05-01T21:51:29.737Z,11.93
2019-05-01T21:54:00.328Z,12.05
2019-05-01T21:56:30.988Z,12.28
2019-05-01T21:59:06.813Z,12.20
2019-05-01T22:01:36.413Z,13.40
2019-05-01T22:04:07.233Z,11.95
2019-05-01T22:06:37.837Z,12.15
2019-05-01T22:09:16.605Z,12.85
2019-05-01T22:11:47.602Z,11.83
2019-05-01T22:14:46.270Z,12.43
2019-05-01T22:17:27.378Z,11.93
2019-05-01T22:19:56.358Z,11.60
2019-05-01T22:22:46.018Z,11.90
2019-05-01T22:25:26.651Z,10.93
2019-05-01T22:28:03.432Z,10.90
2019-05-01T22:30:42.242Z,11.33
2019-05-01T22:33:10.519Z,11.60
2019-05-01T22:35:44.777Z,10.63
2019-05-01T22:38:16.762Z,11.25
2019-05-01T22:41:06.084Z,11.85
2019-05-01T22:43:27.703Z,11.68
2019-05-01T22:46:01.689Z,12.68
2019-05-01T22:48:31.399Z,11.48
2019-05-01T22:51:08.461Z,11.85
2019-05-01T22:53:40.019Z,11.68
2019-05-01T22:56:10.700Z,10.95
2019-05-01T22:58:41.246Z,11.20
2019-05-01T23:01:13.199Z,11.90
2019-05-01T23:03:49.708Z,10.95
2019-05-01T23:06:20.777Z,11.45
2019-05-01T23:08:51.527Z,10.72
2019-05-01T23:11:24.187Z,11.43
2019-05-01T23:13:56.194Z,11.63
2019-05-01T23:16:30.238Z,11.70
2019-05-01T23:19:00.812Z,11.75
2019-05-01T23:21:31.338Z,11.78
2019-05-01T23:24:03.933Z,11.30
2019-05-01T23:26:34.480Z,11.22
2019-05-01T23:29:05.236Z,11.43
2019-05-01T23:31:35.778Z,12.00
2019-05-01T23:34:06.545Z,11.43
2019-05-01T23:36:37.112Z,11.20
2019-05-01T23:39:08.296Z,11.10
2019-05-01T23:41:45.540Z,11.18
2019-05-01T23:44:11.131Z,11.90
2019-05-01T23:46:41.880Z,11.95
2019-05-01T23:49:13.909Z,11.28
2019-05-01T23:51:44.490Z,11.93
2019-05-01T23:54:16.913Z,12.40
2019-05-01T23:56:48.985Z,11.73
2019-05-01T23:59:19.508Z,11.45
